createdAt,value
2022-11-01T10:06:19.824Z,43.17
2022-11-01T10:09:08.055Z,44.93
2022-11-01T10:11:56.593Z,47.87
2022-11-01T10:14:31.596Z,48.97
2022-11-01T10:17:16.975Z,48.07
2022-11-01T10:19:50.889Z,51.53
2022-11-01T10:22:34.979Z,55.80
2022-11-01T10:25:20.822Z,46.80
2022-11-01T10:28:00.376Z,60.57
2022-11-01T10:30:33.219Z,196.40
2022-11-01T10:33:21.916Z,83.07
2022-11-01T10:35:55.285Z,172.37
2022-11-01T10:41:25.857Z,65.47
2022-11-01T10:43:57.622Z,70.47
2022-11-01T10:46:29.805Z,90.37
2022-11-01T10:49:04.265Z,55.73
2022-11-01T10:51:35.256Z,84.73
2022-11-01T10:54:05.303Z,55.10
2022-11-01T10:56:37.272Z,49.07
2022-11-01T10:59:10.326Z,54.00
2022-11-01T11:01:44.457Z,56.30
2022-11-01T11:04:15.933Z,55.93
2022-11-01T11:06:44.088Z,60.57
2022-11-01T11:09:32.970Z,58.90
2022-11-01T11:12:04.292Z,69.80
2022-11-01T11:14:34.300Z,60.20
2022-11-01T11:17:03.555Z,55.70
2022-11-01T11:19:30.879Z,62.97
2022-11-01T11:21:59.750Z,63.30
2022-11-01T11:24:39.487Z,123.63
2022-11-01T11:27:27.526Z,116.33
2022-11-01T11:30:00.236Z,54.30
2022-11-01T11:32:33.375Z,56.87
2022-11-01T11:35:32.912Z,52.03
2022-11-01T11:38:06.503Z,50.43
2022-11-01T11:40:40.986Z,53.03
2022-11-01T11:43:30.606Z,57.40
2022-11-01T11:46:21.901Z,57.43
2022-11-01T11:48:57.408Z,54.27
2022-11-01T11:51:27.649Z,54.90
2022-11-01T11:54:29.003Z,59.90
2022-11-01T11:57:26.267Z,53.87
2022-11-01T12:00:05.841Z,51.53
2022-11-01T12:02:42.499Z,53.90
2022-11-01T12:05:18.106Z,55.57
2022-11-01T12:07:51.741Z,56.90
2022-11-01T12:10:34.952Z,48.40
2022-11-01T12:13:04.904Z,50.40
2022-11-01T12:15:40.091Z,53.43
2022-11-01T12:18:19.525Z,54.10
2022-11-01T12:20:52.362Z,61.83
2022-11-01T12:23:19.824Z,59.63
2022-11-01T12:25:48.301Z,67.17
2022-11-01T12:28:38.376Z,68.83
2022-11-01T12:31:17.866Z,65.27
2022-11-01T12:34:06.943Z,73.60
2022-11-01T12:36:43.034Z,66.57
2022-11-01T12:39:22.419Z,71.90
2022-11-01T12:42:00.821Z,72.97
2022-11-01T12:44:34.016Z,73.03
2022-11-01T12:47:25.980Z,83.83
2022-11-01T12:49:53.906Z,75.77
2022-11-01T12:52:39.784Z,76.97
2022-11-01T12:55:20.619Z,83.47
2022-11-01T12:57:49.189Z,75.60
2022-11-01T13:00:18.805Z,77.40
2022-11-01T13:03:13.372Z,83.73
2022-11-01T13:05:52.444Z,77.87
2022-11-01T13:08:21.373Z,77.83
2022-11-01T13:10:49.302Z,85.43
2022-11-01T13:13:34.745Z,82.87
2022-11-01T13:16:25.955Z,87.77
2022-11-01T13:19:35.466Z,91.27
2022-11-01T13:22:28.766Z,90.50
2022-11-01T13:25:00.473Z,87.23
2022-11-01T13:27:39.567Z,93.90
2022-11-01T13:30:15.727Z,98.53
2022-11-01T13:32:59.641Z,94.57
2022-11-01T13:35:31.920Z,110.40
2022-11-01T13:38:18.294Z,108.70
2022-11-01T13:41:01.655Z,100.77
2022-11-01T13:43:40.383Z,91.23
2022-11-01T13:46:08.394Z,103.80
2022-11-01T13:48:47.645Z,108.67
2022-11-01T13:51:42.709Z,112.20
2022-11-01T13:54:28.604Z,105.73
2022-11-01T13:56:56.774Z,127.63
2022-11-01T13:59:55.504Z,104.27
2022-11-01T14:02:26.534Z,238.17
2022-11-01T14:04:59.402Z,122.83
2022-11-01T14:07:37.815Z,126.43
2022-11-01T14:10:31.204Z,118.97
2022-11-01T14:12:59.816Z,120.40
2022-11-01T14:15:31.971Z,102.63
2022-11-01T14:18:06.052Z,110.67
2022-11-01T14:20:34.069Z,129.17
2022-11-01T14:23:29.761Z,148.47
2022-11-01T14:26:19.224Z,121.97
2022-11-01T14:28:49.212Z,116.70
2022-11-01T14:31:19.319Z,113.83
2022-11-01T14:33:48.782Z,125.80
2022-11-01T14:36:20.239Z,139.90
2022-11-01T14:39:01.158Z,146.83
2022-11-01T14:41:32.850Z,143.07
2022-11-01T14:44:08.056Z,156.60
2022-11-01T14:46:45.587Z,128.77
2022-11-01T14:49:42.029Z,157.70
2022-11-01T14:52:25.431Z,182.33
2022-11-01T14:55:14.402Z,174.00
2022-11-01T14:57:43.266Z,170.37
2022-11-01T15:00:29.934Z,163.50
2022-11-01T15:05:32.498Z,142.10
2022-11-01T15:08:00.923Z,180.13
2022-11-01T15:10:29.504Z,168.77
2022-11-01T15:12:59.517Z,206.03
2022-11-01T15:15:30.971Z,198.63
2022-11-01T15:18:03.006Z,209.27
2022-11-01T15:20:37.682Z,376.13
2022-11-01T15:23:12.137Z,197.30
2022-11-01T15:25:41.131Z,207.03
2022-11-01T15:28:35.887Z,197.83
2022-11-01T15:31:06.993Z,210.47
2022-11-01T15:33:35.233Z,213.43
2022-11-01T15:36:19.576Z,241.27
2022-11-01T15:38:56.464Z,227.63
2022-11-01T15:41:34.311Z,205.10
2022-11-01T15:44:06.092Z,190.23
2022-11-01T15:46:38.433Z,178.13
2022-11-01T15:49:19.911Z,189.87
2022-11-01T15:52:23.950Z,189.83
2022-11-01T15:55:01.739Z,204.90
2022-11-01T15:57:42.824Z,192.57
2022-11-01T16:00:18.273Z,202.30
2022-11-01T16:02:49.893Z,182.57
2022-11-01T16:05:21.520Z,194.73
2022-11-01T16:07:49.645Z,211.30
2022-11-01T16:10:25.564Z,194.40
2022-11-01T16:12:53.932Z,187.87
2022-11-01T16:15:31.226Z,197.87
2022-11-01T16:18:00.385Z,204.53
2022-11-01T16:20:31.820Z,228.80
2022-11-01T16:23:00.576Z,211.27
2022-11-01T16:25:32.007Z,168.70
2022-11-01T16:28:20.098Z,189.77
2022-11-01T16:30:52.134Z,169.83
2022-11-01T16:33:35.825Z,192.80
2022-11-01T16:36:18.267Z,173.63
2022-11-01T16:38:47.762Z,186.93
2022-11-01T16:41:15.464Z,173.23
2022-11-01T16:43:43.863Z,187.50
2022-11-01T16:46:11.433Z,185.70
2022-11-01T16:48:58.952Z,173.03
2022-11-01T16:51:30.352Z,179.33
2022-11-01T16:54:00.333Z,175.10
2022-11-01T16:56:36.628Z,170.93
2022-11-01T16:59:08.370Z,191.70
2022-11-01T17:01:36.601Z,188.97
2022-11-01T17:04:05.176Z,194.13
2022-11-01T17:06:37.751Z,181.83
2022-11-01T17:09:15.024Z,196.53
2022-11-01T17:11:47.874Z,189.10
2022-11-01T17:14:19.135Z,181.70
2022-11-01T17:16:48.077Z,205.90
2022-11-01T17:19:26.522Z,192.77
2022-11-01T17:21:54.871Z,198.17
2022-11-01T17:24:25.758Z,212.57
2022-11-01T17:26:56.268Z,225.77
2022-11-01T17:29:24.792Z,222.93
2022-11-01T17:31:53.410Z,211.10
2022-11-01T17:34:21.573Z,211.17
2022-11-01T17:36:51.667Z,205.27
2022-11-01T17:39:20.381Z,217.33
2022-11-01T17:41:48.562Z,212.30
2022-11-01T17:44:18.117Z,221.77
2022-11-01T17:46:45.898Z,217.07
2022-11-01T17:49:15.859Z,205.57
2022-11-01T17:51:43.958Z,211.30
2022-11-01T17:54:11.948Z,221.27
2022-11-01T17:56:40.080Z,210.90
2022-11-01T17:59:08.819Z,189.87
2022-11-01T18:01:38.808Z,200.17
2022-11-01T18:04:07.808Z,199.67
2022-11-01T18:06:36.020Z,198.90
2022-11-01T18:09:18.265Z,194.60
2022-11-01T18:11:52.420Z,200.10
2022-11-01T18:14:27.119Z,194.67
2022-11-01T18:17:01.872Z,190.27
2022-11-01T18:19:42.701Z,213.13
2022-11-01T18:22:15.698Z,174.60
2022-11-01T18:24:46.939Z,195.73
2022-11-01T18:27:14.831Z,192.43
2022-11-01T18:29:46.731Z,196.27
2022-11-01T18:32:34.204Z,195.23
2022-11-01T18:35:28.941Z,178.50
2022-11-01T18:38:08.875Z,200.17
2022-11-01T18:40:44.896Z,194.97
2022-11-01T18:43:12.815Z,186.33
2022-11-01T18:46:04.514Z,207.50
2022-11-01T18:48:29.162Z,187.20
2022-11-01T18:51:06.093Z,198.17
2022-11-01T18:53:34.556Z,205.53
2022-11-01T18:56:15.370Z,200.43
2022-11-01T18:58:43.615Z,196.57
2022-11-01T19:01:18.308Z,193.50
2022-11-01T19:03:47.213Z,202.10
2022-11-01T19:06:23.341Z,209.57
2022-11-01T19:08:58.481Z,188.67
2022-11-01T19:11:28.374Z,189.43
2022-11-01T19:14:00.216Z,188.47
2022-11-01T19:16:30.091Z,199.60
2022-11-01T19:18:58.130Z,203.63
2022-11-01T19:21:26.216Z,182.13
2022-11-01T19:23:54.937Z,184.47
2022-11-01T19:26:42.347Z,193.53
2022-11-01T19:29:15.669Z,175.70
2022-11-01T19:31:44.901Z,189.43
2022-11-01T19:34:17.203Z,168.70
2022-11-01T19:36:46.188Z,188.30
2022-11-01T19:39:23.530Z,162.63
2022-11-01T19:41:52.978Z,181.60
2022-11-01T19:44:22.587Z,176.83
2022-11-01T19:46:54.316Z,171.67
2022-11-01T19:49:26.855Z,163.07
2022-11-01T19:52:01.159Z,178.60
2022-11-01T19:54:31.680Z,174.17
2022-11-01T19:57:04.716Z,178.27
2022-11-01T19:59:33.285Z,169.20
2022-11-01T20:02:05.096Z,163.67
2022-11-01T20:04:36.357Z,173.47
2022-11-01T20:07:13.935Z,161.33
2022-11-01T20:09:41.870Z,167.67
2022-11-01T20:12:11.549Z,161.53
2022-11-01T20:14:40.123Z,155.53
2022-11-01T20:17:09.489Z,160.80
2022-11-01T20:19:38.730Z,154.13
2022-11-01T20:22:07.255Z,162.63
2022-11-01T20:24:35.221Z,154.63
2022-11-01T20:27:03.641Z,153.50
2022-11-01T20:29:31.656Z,148.57
2022-11-01T20:32:00.458Z,154.00
2022-11-01T20:34:29.580Z,150.20
2022-11-01T20:39:46.869Z,144.90
2022-11-01T20:42:15.400Z,152.20
2022-11-01T20:44:43.423Z,161.90
2022-11-01T20:47:11.522Z,155.30
2022-11-01T20:49:39.557Z,145.03
2022-11-01T20:52:33.752Z,147.37
2022-11-01T20:54:58.282Z,151.37
2022-11-01T20:57:29.527Z,143.87
2022-11-01T21:00:00.465Z,156.43
2022-11-01T21:02:30.301Z,144.93
2022-11-01T21:05:02.859Z,140.10
2022-11-01T21:07:31.596Z,135.07
2022-11-01T21:09:59.972Z,139.60
2022-11-01T21:12:45.273Z,144.30
2022-11-01T21:15:31.854Z,142.20
2022-11-01T21:18:03.156Z,134.60
2022-11-01T21:20:31.367Z,136.40
2022-11-01T21:23:11.029Z,147.40
2022-11-01T21:25:39.500Z,141.93
2022-11-01T21:28:15.660Z,143.00
2022-11-01T21:30:43.836Z,131.27
2022-11-01T21:33:28.833Z,136.33
2022-11-01T21:35:56.915Z,133.23
2022-11-01T21:38:27.911Z,129.93
2022-11-01T21:40:58.440Z,146.07
2022-11-01T21:43:32.071Z,129.17
2022-11-01T21:45:59.888Z,143.93
2022-11-01T21:48:32.616Z,122.23
2022-11-01T21:51:00.816Z,121.23
2022-11-01T21:53:29.453Z,131.03
2022-11-01T21:55:57.383Z,132.93
2022-11-01T21:58:25.750Z,131.30
2022-11-01T22:00:53.458Z,134.50
2022-11-01T22:03:21.880Z,123.90
2022-11-01T22:05:49.884Z,137.17
2022-11-01T22:08:18.126Z,128.00
2022-11-01T22:10:45.996Z,125.80
2022-11-01T22:13:14.499Z,127.87
2022-11-01T22:15:42.362Z,126.37
2022-11-01T22:18:10.622Z,116.53
2022-11-01T22:20:38.412Z,125.33
2022-11-01T22:23:06.882Z,129.53
2022-11-01T22:25:35.078Z,117.07
2022-11-01T22:28:03.187Z,124.10
2022-11-01T22:30:31.051Z,126.33
2022-11-01T22:32:59.061Z,131.00
2022-11-01T22:35:26.914Z,125.93
2022-11-01T22:37:55.147Z,132.53
2022-11-01T22:40:22.923Z,132.90
2022-11-01T22:42:53.728Z,121.23
2022-11-01T22:45:21.503Z,128.13
2022-11-01T22:47:49.701Z,129.70
2022-11-01T22:50:23.152Z,123.67
2022-11-01T22:52:51.280Z,126.67
2022-11-01T22:55:24.401Z,129.13
2022-11-01T22:57:52.635Z,129.33
2022-11-01T23:00:23.643Z,132.03
2022-11-01T23:02:51.711Z,131.50
2022-11-01T23:05:24.796Z,130.33
2022-11-01T23:07:57.812Z,126.97
2022-11-01T23:10:29.088Z,133.60
2022-11-01T23:13:18.159Z,138.00
2022-11-01T23:15:46.461Z,132.23
2022-11-01T23:18:17.418Z,128.27
2022-11-01T23:20:46.267Z,127.73
2022-11-01T23:23:19.006Z,137.43
2022-11-01T23:25:47.183Z,134.50
2022-11-01T23:28:14.869Z,133.13
2022-11-01T23:30:43.777Z,128.40
2022-11-01T23:33:18.610Z,123.97
2022-11-01T23:35:52.627Z,128.03
2022-11-01T23:38:34.388Z,127.40
2022-11-01T23:41:02.648Z,129.80
2022-11-01T23:43:40.775Z,126.93
2022-11-01T23:46:11.197Z,152.40
2022-11-01T23:48:43.217Z,135.03
2022-11-01T23:51:22.239Z,116.87
2022-11-01T23:53:52.102Z,127.43
2022-11-01T23:56:21.029Z,140.87
2022-11-01T23:58:54.411Z,127.43
